sensor_id;sensor_type;location;lat;lon;timestamp;pressure;altitude;pressure_sealevel;temperature;humidity
63493;BME280;49638;47.526;10.028;2023-05-19T00:00:37;91889.38;;;7.97;84.11
63493;BME280;49638;47.526;10.028;2023-05-19T00:03:48;91890.06;;;7.93;85.29
63493;BME280;49638;47.526;10.028;2023-05-19T00:06:49;91886.19;;;7.95;84.31
63493;BME280;49638;47.526;10.028;2023-05-19T00:09:50;91879.84;;;7.85;84.40
63493;BME280;49638;47.526;10.028;2023-05-19T00:12:51;91890.75;;;7.88;84.67
63493;BME280;49638;47.526;10.028;2023-05-19T00:15:52;91887.06;;;7.89;84.61
63493;BME280;49638;47.526;10.028;2023-05-19T00:18:52;91877.00;;;7.86;84.71
63493;BME280;49638;47.526;10.028;2023-05-19T00:21:53;91878.03;;;7.85;84.42
63493;BME280;49638;47.526;10.028;2023-05-19T00:24:53;91881.53;;;7.79;84.91
63493;BME280;49638;47.526;10.028;2023-05-19T00:27:53;91882.78;;;7.76;84.98
63493;BME280;49638;47.526;10.028;2023-05-19T00:30:54;91879.78;;;7.73;84.99
63493;BME280;49638;47.526;10.028;2023-05-19T00:33:55;91873.22;;;7.64;85.18
63493;BME280;49638;47.526;10.028;2023-05-19T00:36:55;91879.66;;;7.68;85.29
63493;BME280;49638;47.526;10.028;2023-05-19T00:39:55;91876.63;;;7.64;85.46
63493;BME280;49638;47.526;10.028;2023-05-19T00:42:56;91867.94;;;7.64;85.53
63493;BME280;49638;47.526;10.028;2023-05-19T00:45:56;91868.97;;;7.63;85.43
63493;BME280;49638;47.526;10.028;2023-05-19T00:48:57;91845.72;;;7.48;85.82
63493;BME280;49638;47.526;10.028;2023-05-19T00:51:59;91868.34;;;7.49;86.40
63493;BME280;49638;47.526;10.028;2023-05-19T00:55:00;91865.34;;;7.45;85.97
63493;BME280;49638;47.526;10.028;2023-05-19T00:58:00;91857.22;;;7.47;86.17
63493;BME280;49638;47.526;10.028;2023-05-19T01:01:02;91854.25;;;7.43;86.17
63493;BME280;49638;47.526;10.028;2023-05-19T01:04:02;91860.91;;;7.46;85.80
63493;BME280;49638;47.526;10.028;2023-05-19T01:07:04;91846.78;;;7.40;86.04
63493;BME280;49638;47.526;10.028;2023-05-19T01:10:04;91841.09;;;7.43;86.04
63493;BME280;49638;47.526;10.028;2023-05-19T01:13:06;91862.84;;;7.50;86.41
63493;BME280;49638;47.526;10.028;2023-05-19T01:16:11;91859.06;;;7.46;86.30
63493;BME280;49638;47.526;10.028;2023-05-19T01:26:34;91845.91;;;7.46;88.91
63493;BME280;49638;47.526;10.028;2023-05-19T01:30:06;91856.31;;;7.41;86.45
63493;BME280;49638;47.526;10.028;2023-05-19T01:33:11;91851.47;;;7.38;87.04
63493;BME280;49638;47.526;10.028;2023-05-19T01:36:13;91834.25;;;7.24;86.81
63493;BME280;49638;47.526;10.028;2023-05-19T01:39:14;91850.59;;;7.26;86.57
63493;BME280;49638;47.526;10.028;2023-05-19T01:42:16;91848.41;;;7.23;87.20
63493;BME280;49638;47.526;10.028;2023-05-19T01:45:17;91863.53;;;7.27;86.81
63493;BME280;49638;47.526;10.028;2023-05-19T01:48:18;91851.84;;;7.23;86.95
63493;BME280;49638;47.526;10.028;2023-05-19T01:51:19;91841.63;;;7.15;86.73
63493;BME280;49638;47.526;10.028;2023-05-19T01:54:19;91853.09;;;7.21;86.90
63493;BME280;49638;47.526;10.028;2023-05-19T02:07:16;91851.19;;;7.09;88.66
63493;BME280;49638;47.526;10.028;2023-05-19T02:10:23;91852.81;;;7.10;87.83
63493;BME280;49638;47.526;10.028;2023-05-19T02:13:30;91848.53;;;7.09;88.19
63493;BME280;49638;47.526;10.028;2023-05-19T02:16:32;91850.38;;;7.09;87.94
63493;BME280;49638;47.526;10.028;2023-05-19T02:19:37;91857.63;;;7.14;88.00
63493;BME280;49638;47.526;10.028;2023-05-19T02:22:38;91851.34;;;7.15;88.62
63493;BME280;49638;47.526;10.028;2023-05-19T02:25:38;91854.53;;;7.17;88.11
63493;BME280;49638;47.526;10.028;2023-05-19T02:28:39;91848.72;;;7.15;88.09
63493;BME280;49638;47.526;10.028;2023-05-19T02:31:39;91854.09;;;7.20;88.35
63493;BME280;49638;47.526;10.028;2023-05-19T02:34:39;91830.75;;;7.11;88.59
63493;BME280;49638;47.526;10.028;2023-05-19T02:37:41;91851.03;;;7.23;88.26
63493;BME280;49638;47.526;10.028;2023-05-19T02:40:41;91849.00;;;7.25;88.78
63493;BME280;49638;47.526;10.028;2023-05-19T02:43:41;91828.25;;;7.17;88.35
63493;BME280;49638;47.526;10.028;2023-05-19T02:46:42;91839.59;;;7.17;88.63
63493;BME280;49638;47.526;10.028;2023-05-19T02:49:42;91840.09;;;7.26;88.49
63493;BME280;49638;47.526;10.028;2023-05-19T02:52:43;91825.63;;;7.17;88.45
63493;BME280;49638;47.526;10.028;2023-05-19T02:55:43;91836.47;;;7.27;88.58
63493;BME280;49638;47.526;10.028;2023-05-19T02:58:43;91833.81;;;7.27;88.86
63493;BME280;49638;47.526;10.028;2023-05-19T03:01:43;91819.50;;;7.23;88.67
63493;BME280;49638;47.526;10.028;2023-05-19T03:04:44;91827.53;;;7.28;88.54
63493;BME280;49638;47.526;10.028;2023-05-19T03:07:44;91813.66;;;7.21;88.67
63493;BME280;49638;47.526;10.028;2023-05-19T03:10:45;91813.88;;;7.19;88.50
63493;BME280;49638;47.526;10.028;2023-05-19T03:13:46;91813.22;;;7.24;88.82
63493;BME280;49638;47.526;10.028;2023-05-19T03:16:46;91816.06;;;7.22;88.65
63493;BME280;49638;47.526;10.028;2023-05-19T03:19:47;91815.94;;;7.17;88.46
63493;BME280;49638;47.526;10.028;2023-05-19T03:22:47;91817.16;;;7.15;88.51
63493;BME280;49638;47.526;10.028;2023-05-19T03:25:48;91805.34;;;7.05;88.86
63493;BME280;49638;47.526;10.028;2023-05-19T03:28:48;91825.13;;;7.08;88.76
63493;BME280;49638;47.526;10.028;2023-05-19T03:31:48;91826.59;;;7.04;88.71
63493;BME280;49638;47.526;10.028;2023-05-19T03:34:49;91826.97;;;7.07;88.76
63493;BME280;49638;47.526;10.028;2023-05-19T03:37:49;91824.53;;;7.06;88.90
63493;BME280;49638;47.526;10.028;2023-05-19T03:40:49;91829.00;;;7.05;88.57
63493;BME280;49638;47.526;10.028;2023-05-19T03:43:49;91819.56;;;6.98;88.74
63493;BME280;49638;47.526;10.028;2023-05-19T03:46:50;91829.00;;;7.05;88.51
63493;BME280;49638;47.526;10.028;2023-05-19T03:49:50;91819.16;;;7.01;88.74
63493;BME280;49638;47.526;10.028;2023-05-19T03:52:50;91822.41;;;6.96;89.00
63493;BME280;49638;47.526;10.028;2023-05-19T03:55:51;91813.97;;;6.94;89.09
63493;BME280;49638;47.526;10.028;2023-05-19T03:58:51;91823.81;;;6.99;89.23
63493;BME280;49638;47.526;10.028;2023-05-19T04:01:53;91825.78;;;7.03;89.28
63493;BME280;49638;47.526;10.028;2023-05-19T04:04:53;91819.72;;;7.03;89.34
63493;BME280;49638;47.526;10.028;2023-05-19T04:07:54;91827.41;;;7.04;89.43
63493;BME280;49638;47.526;10.028;2023-05-19T04:10:54;91827.31;;;7.11;89.37
63493;BME280;49638;47.526;10.028;2023-05-19T04:13:54;91818.84;;;7.09;89.40
63493;BME280;49638;47.526;10.028;2023-05-19T04:16:55;91822.63;;;7.13;89.58
63493;BME280;49638;47.526;10.028;2023-05-19T04:19:55;91826.75;;;7.27;89.10
63493;BME280;49638;47.526;10.028;2023-05-19T04:22:55;91829.28;;;7.34;89.40
63493;BME280;49638;47.526;10.028;2023-05-19T04:25:55;91828.63;;;7.39;89.20
63493;BME280;49638;47.526;10.028;2023-05-19T04:28:57;91826.94;;;7.44;89.43
63493;BME280;49638;47.526;10.028;2023-05-19T04:31:57;91824.22;;;7.51;89.39
63493;BME280;49638;47.526;10.028;2023-05-19T04:34:57;91828.38;;;7.58;88.94
63493;BME280;49638;47.526;10.028;2023-05-19T04:37:57;91816.69;;;7.54;88.84
63493;BME280;49638;47.526;10.028;2023-05-19T04:40:58;91823.25;;;7.64;88.64
63493;BME280;49638;47.526;10.028;2023-05-19T04:44:00;91817.09;;;7.70;88.90
63493;BME280;49638;47.526;10.028;2023-05-19T04:47:01;91823.22;;;7.82;88.75
63493;BME280;49638;47.526;10.028;2023-05-19T04:50:01;91825.25;;;7.80;88.84
63493;BME280;49638;47.526;10.028;2023-05-19T04:53:02;91821.16;;;7.84;88.90
63493;BME280;49638;47.526;10.028;2023-05-19T04:56:02;91817.63;;;7.90;88.92
63493;BME280;49638;47.526;10.028;2023-05-19T04:59:02;91824.19;;;7.99;88.48
63493;BME280;49638;47.526;10.028;2023-05-19T05:02:03;91835.06;;;8.03;88.64
63493;BME280;49638;47.526;10.028;2023-05-19T05:05:03;91829.13;;;8.07;88.44
63493;BME280;49638;47.526;10.028;2023-05-19T05:08:04;91819.84;;;8.05;88.32
63493;BME280;49638;47.526;10.028;2023-05-19T05:11:05;91827.28;;;8.08;88.21
63493;BME280;49638;47.526;10.028;2023-05-19T05:14:06;91835.66;;;8.17;88.36
63493;BME280;49638;47.526;10.028;2023-05-19T05:17:06;91818.28;;;8.16;88.31
63493;BME280;49638;47.526;10.028;2023-05-19T05:20:07;91833.53;;;8.25;88.56
63493;BME280;49638;47.526;10.028;2023-05-19T05:23:08;91834.69;;;8.29;88.27
63493;BME280;49638;47.526;10.028;2023-05-19T05:26:16;91837.88;;;8.32;88.11
63493;BME280;49638;47.526;10.028;2023-05-19T05:29:18;91830.31;;;8.35;88.27
63493;BME280;49638;47.526;10.028;2023-05-19T05:32:20;91836.78;;;8.39;88.35
63493;BME280;49638;47.526;10.028;2023-05-19T05:35:22;91833.47;;;8.44;88.23
63493;BME280;49638;47.526;10.028;2023-05-19T05:38:23;91834.41;;;8.49;88.21
63493;BME280;49638;47.526;10.028;2023-05-19T05:41:23;91847.69;;;8.55;88.52
63493;BME280;49638;47.526;10.028;2023-05-19T05:44:23;91833.34;;;8.62;88.26
63493;BME280;49638;47.526;10.028;2023-05-19T05:47:24;91832.09;;;8.65;88.14
63493;BME280;49638;47.526;10.028;2023-05-19T05:50:24;91842.09;;;8.74;88.61
63493;BME280;49638;47.526;10.028;2023-05-19T05:53:28;91838.75;;;8.79;87.86
63493;BME280;49638;47.526;10.028;2023-05-19T05:56:29;91856.75;;;8.94;87.92
63493;BME280;49638;47.526;10.028;2023-05-19T05:59:29;91848.41;;;8.97;88.19
63493;BME280;49638;47.526;10.028;2023-05-19T06:02:30;91844.03;;;9.03;87.97
63493;BME280;49638;47.526;10.028;2023-05-19T06:05:30;91841.50;;;9.08;87.94
63493;BME280;49638;47.526;10.028;2023-05-19T06:08:30;91830.38;;;9.06;87.73
63493;BME280;49638;47.526;10.028;2023-05-19T06:11:31;91834.84;;;9.17;88.35
63493;BME280;49638;47.526;10.028;2023-05-19T06:14:31;91829.81;;;9.15;87.98
63493;BME280;49638;47.526;10.028;2023-05-19T06:17:31;91847.69;;;9.25;87.95
63493;BME280;49638;47.526;10.028;2023-05-19T06:20:34;91843.88;;;9.33;88.12
63493;BME280;49638;47.526;10.028;2023-05-19T06:23:35;91832.19;;;9.29;87.49
63493;BME280;49638;47.526;10.028;2023-05-19T06:26:36;91844.09;;;9.43;88.06
63493;BME280;49638;47.526;10.028;2023-05-19T06:29:36;91832.16;;;9.40;87.79
63493;BME280;49638;47.526;10.028;2023-05-19T06:32:36;91845.22;;;9.47;87.76
63493;BME280;49638;47.526;10.028;2023-05-19T06:35:37;91846.47;;;9.56;87.39
63493;BME280;49638;47.526;10.028;2023-05-19T06:38:37;91838.88;;;9.60;86.49
63493;BME280;49638;47.526;10.028;2023-05-19T06:41:37;91855.16;;;9.68;86.95
63493;BME280;49638;47.526;10.028;2023-05-19T06:44:38;91834.84;;;9.69;86.91
63493;BME280;49638;47.526;10.028;2023-05-19T06:47:38;91844.03;;;9.66;86.66
63493;BME280;49638;47.526;10.028;2023-05-19T06:50:43;91836.38;;;9.65;86.99
63493;BME280;49638;47.526;10.028;2023-05-19T06:53:43;91842.84;;;9.74;86.87
63493;BME280;49638;47.526;10.028;2023-05-19T06:56:43;91857.41;;;9.88;86.75
63493;BME280;49638;47.526;10.028;2023-05-19T06:59:44;91851.75;;;9.97;86.90
63493;BME280;49638;47.526;10.028;2023-05-19T07:02:45;91849.88;;;10.09;86.19
63493;BME280;49638;47.526;10.028;2023-05-19T07:05:45;91843.25;;;10.23;86.18
63493;BME280;49638;47.526;10.028;2023-05-19T07:08:46;91845.53;;;10.31;85.09
63493;BME280;49638;47.526;10.028;2023-05-19T07:11:46;91848.50;;;10.35;85.68
63493;BME280;49638;47.526;10.028;2023-05-19T07:14:46;91854.09;;;10.38;86.04
63493;BME280;49638;47.526;10.028;2023-05-19T07:17:47;91839.94;;;10.45;85.25
63493;BME280;49638;47.526;10.028;2023-05-19T07:20:47;91841.16;;;10.54;84.31
63493;BME280;49638;47.526;10.028;2023-05-19T07:23:47;91843.97;;;10.64;84.59
63493;BME280;49638;47.526;10.028;2023-05-19T07:26:48;91836.41;;;10.73;84.67
63493;BME280;49638;47.526;10.028;2023-05-19T07:29:48;91837.88;;;10.80;83.82
63493;BME280;49638;47.526;10.028;2023-05-19T07:32:48;91827.94;;;10.87;83.79
63493;BME280;49638;47.526;10.028;2023-05-19T07:35:48;91829.06;;;10.92;83.61
63493;BME280;49638;47.526;10.028;2023-05-19T07:38:49;91825.19;;;10.99;83.09
63493;BME280;49638;47.526;10.028;2023-05-19T07:41:49;91827.91;;;11.21;82.01
63493;BME280;49638;47.526;10.028;2023-05-19T07:44:53;91813.31;;;11.41;81.27
63493;BME280;49638;47.526;10.028;2023-05-19T07:47:53;91822.31;;;11.61;80.44
63493;BME280;49638;47.526;10.028;2023-05-19T07:50:53;91815.34;;;11.77;79.62
63493;BME280;49638;47.526;10.028;2023-05-19T07:53:54;91819.00;;;11.93;79.59
63493;BME280;49638;47.526;10.028;2023-05-19T07:56:55;91824.41;;;12.03;78.80
63493;BME280;49638;47.526;10.028;2023-05-19T07:59:55;91834.44;;;12.01;79.23
63493;BME280;49638;47.526;10.028;2023-05-19T08:02:55;91816.59;;;11.92;78.99
63493;BME280;49638;47.526;10.028;2023-05-19T08:05:56;91817.16;;;11.94;78.50
63493;BME280;49638;47.526;10.028;2023-05-19T08:08:56;91815.25;;;11.89;78.00
63493;BME280;49638;47.526;10.028;2023-05-19T08:11:57;91824.66;;;12.02;78.12
63493;BME280;49638;47.526;10.028;2023-05-19T08:14:57;91820.50;;;12.11;77.36
63493;BME280;49638;47.526;10.028;2023-05-19T08:17:57;91812.63;;;12.16;77.41
63493;BME280;49638;47.526;10.028;2023-05-19T08:20:58;91816.78;;;12.34;77.56
63493;BME280;49638;47.526;10.028;2023-05-19T08:23:58;91822.91;;;12.40;77.61
63493;BME280;49638;47.526;10.028;2023-05-19T08:26:58;91821.66;;;12.47;77.15
63493;BME280;49638;47.526;10.028;2023-05-19T08:29:59;91810.25;;;12.47;76.73
63493;BME280;49638;47.526;10.028;2023-05-19T08:32:59;91815.88;;;12.50;76.22
63493;BME280;49638;47.526;10.028;2023-05-19T08:36:00;91816.19;;;12.59;76.40
63493;BME280;49638;47.526;10.028;2023-05-19T08:39:00;91816.78;;;12.66;76.19
63493;BME280;49638;47.526;10.028;2023-05-19T08:42:01;91814.59;;;12.58;76.57
63493;BME280;49638;47.526;10.028;2023-05-19T08:45:01;91803.91;;;12.48;76.56
63493;BME280;49638;47.526;10.028;2023-05-19T08:48:02;91824.34;;;12.52;76.54
63493;BME280;49638;47.526;10.028;2023-05-19T08:54:13;91813.72;;;12.47;73.85
63493;BME280;49638;47.526;10.028;2023-05-19T08:57:14;91813.44;;;12.49;76.31
63493;BME280;49638;47.526;10.028;2023-05-19T09:00:15;91816.25;;;12.64;76.03
63493;BME280;49638;47.526;10.028;2023-05-19T09:03:17;91798.19;;;12.61;75.47
63493;BME280;49638;47.526;10.028;2023-05-19T09:06:17;91821.44;;;12.86;75.29
63493;BME280;49638;47.526;10.028;2023-05-19T09:09:18;91800.78;;;12.88;75.34
63493;BME280;49638;47.526;10.028;2023-05-19T09:12:19;91826.09;;;13.06;74.70
63493;BME280;49638;47.526;10.028;2023-05-19T09:15:25;91815.63;;;12.89;72.28
63493;BME280;49638;47.526;10.028;2023-05-19T09:18:25;91828.56;;;12.81;74.45
63493;BME280;49638;47.526;10.028;2023-05-19T09:21:29;91819.97;;;12.68;73.27
63493;BME280;49638;47.526;10.028;2023-05-19T09:24:30;91807.16;;;12.55;74.79
63493;BME280;49638;47.526;10.028;2023-05-19T09:27:31;91801.28;;;12.53;74.37
63493;BME280;49638;47.526;10.028;2023-05-19T09:30:33;91804.56;;;12.60;74.61
63493;BME280;49638;47.526;10.028;2023-05-19T09:33:35;91810.88;;;12.59;73.34
63493;BME280;49638;47.526;10.028;2023-05-19T09:36:38;91817.16;;;12.48;73.16
63493;BME280;49638;47.526;10.028;2023-05-19T09:39:38;91803.81;;;12.38;73.86
63493;BME280;49638;47.526;10.028;2023-05-19T09:42:40;91810.78;;;12.49;74.24
63493;BME280;49638;47.526;10.028;2023-05-19T09:45:41;91803.84;;;12.43;74.08
63493;BME280;49638;47.526;10.028;2023-05-19T09:48:41;91813.16;;;12.45;74.28
63493;BME280;49638;47.526;10.028;2023-05-19T09:51:41;91804.41;;;12.45;74.15
63493;BME280;49638;47.526;10.028;2023-05-19T09:54:41;91815.59;;;12.52;74.09
63493;BME280;49638;47.526;10.028;2023-05-19T09:57:43;91817.81;;;12.60;73.74
63493;BME280;49638;47.526;10.028;2023-05-19T10:00:45;91807.94;;;12.55;73.75
63493;BME280;49638;47.526;10.028;2023-05-19T10:03:46;91815.16;;;12.60;73.72
63493;BME280;49638;47.526;10.028;2023-05-19T10:06:48;91820.22;;;12.67;73.78
63493;BME280;49638;47.526;10.028;2023-05-19T10:09:53;91817.88;;;12.70;74.17
63493;BME280;49638;47.526;10.028;2023-05-19T10:12:53;91809.38;;;12.68;74.28
63493;BME280;49638;47.526;10.028;2023-05-19T10:15:54;91813.88;;;12.68;74.45
63493;BME280;49638;47.526;10.028;2023-05-19T10:18:56;91807.50;;;12.64;73.71
63493;BME280;49638;47.526;10.028;2023-05-19T10:21:58;91801.34;;;12.58;74.14
63493;BME280;49638;47.526;10.028;2023-05-19T10:24:58;91797.91;;;12.63;74.62
63493;BME280;49638;47.526;10.028;2023-05-19T10:28:12;91794.53;;;12.67;71.70
63493;BME280;49638;47.526;10.028;2023-05-19T10:31:17;91804.56;;;12.65;73.92
63493;BME280;49638;47.526;10.028;2023-05-19T10:37:33;91819.72;;;12.70;72.95
63493;BME280;49638;47.526;10.028;2023-05-19T10:40:56;91808.28;;;12.64;71.62
63493;BME280;49638;47.526;10.028;2023-05-19T10:47:12;91820.69;;;12.59;74.27
63493;BME280;49638;47.526;10.028;2023-05-19T10:50:12;91819.59;;;12.54;74.25
63493;BME280;49638;47.526;10.028;2023-05-19T10:53:14;91810.25;;;12.47;74.35
63493;BME280;49638;47.526;10.028;2023-05-19T10:56:29;91809.84;;;12.60;70.85
63493;BME280;49638;47.526;10.028;2023-05-19T10:59:34;91821.50;;;12.59;73.69
63493;BME280;49638;47.526;10.028;2023-05-19T11:02:41;91819.84;;;12.53;72.30
63493;BME280;49638;47.526;10.028;2023-05-19T11:05:42;91811.66;;;12.54;74.41
63493;BME280;49638;47.526;10.028;2023-05-19T11:08:45;91823.91;;;12.61;74.76
63493;BME280;49638;47.526;10.028;2023-05-19T11:11:53;91812.53;;;12.65;75.04
63493;BME280;49638;47.526;10.028;2023-05-19T11:14:54;91815.81;;;12.77;74.78
63493;BME280;49638;47.526;10.028;2023-05-19T11:17:54;91808.97;;;12.87;75.14
63493;BME280;49638;47.526;10.028;2023-05-19T11:20:59;91810.44;;;13.05;73.00
63493;BME280;49638;47.526;10.028;2023-05-19T11:24:01;91819.22;;;13.10;74.41
63493;BME280;49638;47.526;10.028;2023-05-19T11:27:17;91816.56;;;13.10;70.45
63493;BME280;49638;47.526;10.028;2023-05-19T11:30:18;91795.34;;;13.10;74.05
63493;BME280;49638;47.526;10.028;2023-05-19T11:33:19;91803.84;;;13.12;73.65
63493;BME280;49638;47.526;10.028;2023-05-19T11:36:20;91804.88;;;13.06;73.21
63493;BME280;49638;47.526;10.028;2023-05-19T11:39:21;91813.91;;;13.05;73.27
63493;BME280;49638;47.526;10.028;2023-05-19T11:42:22;91801.38;;;13.00;73.02
63493;BME280;49638;47.526;10.028;2023-05-19T11:45:26;91800.59;;;13.00;72.63
63493;BME280;49638;47.526;10.028;2023-05-19T11:48:28;91800.06;;;13.03;73.09
63493;BME280;49638;47.526;10.028;2023-05-19T11:51:28;91800.06;;;13.03;73.29
63493;BME280;49638;47.526;10.028;2023-05-19T11:54:30;91791.31;;;13.02;72.69
63493;BME280;49638;47.526;10.028;2023-05-19T11:57:31;91787.88;;;13.02;73.17
63493;BME280;49638;47.526;10.028;2023-05-19T12:00:39;91780.19;;;13.06;70.58
63493;BME280;49638;47.526;10.028;2023-05-19T12:03:39;91784.50;;;13.17;73.26
63493;BME280;49638;47.526;10.028;2023-05-19T12:06:39;91782.69;;;13.22;73.11
63493;BME280;49638;47.526;10.028;2023-05-19T12:09:40;91774.69;;;13.17;72.88
63493;BME280;49638;47.526;10.028;2023-05-19T12:12:41;91773.66;;;13.18;72.40
63493;BME280;49638;47.526;10.028;2023-05-19T12:15:44;91761.78;;;13.26;72.73
63493;BME280;49638;47.526;10.028;2023-05-19T12:18:44;91769.50;;;13.38;72.85
63493;BME280;49638;47.526;10.028;2023-05-19T12:21:44;91763.97;;;13.44;73.09
63493;BME280;49638;47.526;10.028;2023-05-19T12:24:45;91756.28;;;13.48;72.47
63493;BME280;49638;47.526;10.028;2023-05-19T12:27:46;91768.50;;;13.49;72.56
63493;BME280;49638;47.526;10.028;2023-05-19T12:30:49;91764.78;;;13.50;72.51
63493;BME280;49638;47.526;10.028;2023-05-19T12:33:51;91758.41;;;13.51;72.59
63493;BME280;49638;47.526;10.028;2023-05-19T12:36:51;91762.16;;;13.55;72.31
63493;BME280;49638;47.526;10.028;2023-05-19T12:39:51;91756.31;;;13.53;72.44
63493;BME280;49638;47.526;10.028;2023-05-19T12:42:55;91775.72;;;13.59;71.37
63493;BME280;49638;47.526;10.028;2023-05-19T12:45:57;91765.91;;;13.59;72.04
63493;BME280;49638;47.526;10.028;2023-05-19T12:49:07;91763.81;;;13.66;71.74
63493;BME280;49638;47.526;10.028;2023-05-19T12:52:08;91765.94;;;13.69;71.91
63493;BME280;49638;47.526;10.028;2023-05-19T12:55:08;91748.38;;;13.68;71.86
63493;BME280;49638;47.526;10.028;2023-05-19T12:58:10;91753.72;;;13.73;71.86
63493;BME280;49638;47.526;10.028;2023-05-19T13:01:15;91752.69;;;13.80;71.39
63493;BME280;49638;47.526;10.028;2023-05-19T13:04:16;91754.84;;;13.83;71.88
63493;BME280;49638;47.526;10.028;2023-05-19T13:07:16;91746.34;;;13.86;71.79
63493;BME280;49638;47.526;10.028;2023-05-19T13:10:17;91763.88;;;13.92;72.26
63493;BME280;49638;47.526;10.028;2023-05-19T13:13:18;91738.88;;;13.88;71.61
63493;BME280;49638;47.526;10.028;2023-05-19T13:16:18;91744.47;;;13.86;71.48
63493;BME280;49638;47.526;10.028;2023-05-19T13:19:18;91741.53;;;13.88;71.24
63493;BME280;49638;47.526;10.028;2023-05-19T13:22:19;91749.53;;;13.83;71.29
63493;BME280;49638;47.526;10.028;2023-05-19T13:25:19;91734.88;;;13.70;71.21
63493;BME280;49638;47.526;10.028;2023-05-19T13:28:20;91725.81;;;13.61;71.06
63493;BME280;49638;47.526;10.028;2023-05-19T13:31:20;91720.22;;;13.57;71.22
63493;BME280;49638;47.526;10.028;2023-05-19T13:34:20;91735.63;;;13.65;71.54
63493;BME280;49638;47.526;10.028;2023-05-19T13:37:21;91735.38;;;13.67;71.65
63493;BME280;49638;47.526;10.028;2023-05-19T13:40:22;91729.81;;;13.73;71.67
63493;BME280;49638;47.526;10.028;2023-05-19T13:43:23;91730.63;;;13.69;71.74
63493;BME280;49638;47.526;10.028;2023-05-19T13:46:23;91743.34;;;13.72;71.72
63493;BME280;49638;47.526;10.028;2023-05-19T13:49:24;91725.56;;;13.62;71.75
63493;BME280;49638;47.526;10.028;2023-05-19T13:52:25;91739.38;;;13.69;71.74
63493;BME280;49638;47.526;10.028;2023-05-19T13:55:25;91740.44;;;13.73;71.60
63493;BME280;49638;47.526;10.028;2023-05-19T13:58:26;91737.75;;;13.68;71.49
63493;BME280;49638;47.526;10.028;2023-05-19T14:01:26;91736.69;;;13.64;71.34
63493;BME280;49638;47.526;10.028;2023-05-19T14:04:27;91732.97;;;13.65;71.34
63493;BME280;49638;47.526;10.028;2023-05-19T14:07:28;91723.94;;;13.56;70.93
63493;BME280;49638;47.526;10.028;2023-05-19T14:10:29;91722.63;;;13.59;71.71
63493;BME280;49638;47.526;10.028;2023-05-19T14:13:29;91737.72;;;13.58;72.07
63493;BME280;49638;47.526;10.028;2023-05-19T14:16:29;91737.72;;;13.58;72.16
63493;BME280;49638;47.526;10.028;2023-05-19T14:19:30;91726.84;;;13.49;72.20
63493;BME280;49638;47.526;10.028;2023-05-19T14:22:31;91733.50;;;13.52;72.42
63493;BME280;49638;47.526;10.028;2023-05-19T14:25:31;91736.91;;;13.47;72.43
63493;BME280;49638;47.526;10.028;2023-05-19T14:28:31;91729.44;;;13.44;72.64
63493;BME280;49638;47.526;10.028;2023-05-19T14:31:31;91739.00;;;13.35;72.67
63493;BME280;49638;47.526;10.028;2023-05-19T14:34:32;91739.78;;;13.36;72.95
63493;BME280;49638;47.526;10.028;2023-05-19T14:37:34;91744.81;;;13.32;72.41
63493;BME280;49638;47.526;10.028;2023-05-19T14:40:37;91741.00;;;13.23;72.37
63493;BME280;49638;47.526;10.028;2023-05-19T14:43:40;91738.03;;;13.14;72.59
63493;BME280;49638;47.526;10.028;2023-05-19T14:46:42;91732.44;;;13.06;72.50
63493;BME280;49638;47.526;10.028;2023-05-19T14:49:42;91724.19;;;13.02;72.99
63493;BME280;49638;47.526;10.028;2023-05-19T14:52:42;91738.53;;;13.01;72.86
63493;BME280;49638;47.526;10.028;2023-05-19T14:55:42;91744.34;;;12.98;73.10
63493;BME280;49638;47.526;10.028;2023-05-19T14:58:43;91742.47;;;12.98;73.07
63493;BME280;49638;47.526;10.028;2023-05-19T15:01:43;91743.00;;;12.95;73.54
63493;BME280;49638;47.526;10.028;2023-05-19T15:04:43;91753.59;;;12.95;73.76
63493;BME280;49638;47.526;10.028;2023-05-19T15:07:44;91745.38;;;12.92;73.80
63493;BME280;49638;47.526;10.028;2023-05-19T15:10:48;91753.56;;;12.90;73.22
63493;BME280;49638;47.526;10.028;2023-05-19T15:13:48;91740.78;;;12.82;73.96
63493;BME280;49638;47.526;10.028;2023-05-19T15:16:49;91748.53;;;12.89;74.26
63493;BME280;49638;47.526;10.028;2023-05-19T15:19:49;91755.41;;;12.85;74.23
63493;BME280;49638;47.526;10.028;2023-05-19T15:22:49;91745.00;;;12.78;74.38
63493;BME280;49638;47.526;10.028;2023-05-19T15:25:50;91748.47;;;12.84;74.36
63493;BME280;49638;47.526;10.028;2023-05-19T15:28:51;91748.47;;;12.78;74.44
63493;BME280;49638;47.526;10.028;2023-05-19T15:31:52;91745.22;;;12.71;74.10
63493;BME280;49638;47.526;10.028;2023-05-19T15:34:52;91748.34;;;12.63;74.49
63493;BME280;49638;47.526;10.028;2023-05-19T15:37:53;91746.97;;;12.55;74.33
63493;BME280;49638;47.526;10.028;2023-05-19T15:40:53;91738.72;;;12.52;74.45
63493;BME280;49638;47.526;10.028;2023-05-19T15:43:53;91753.91;;;12.62;74.57
63493;BME280;49638;47.526;10.028;2023-05-19T15:46:53;91737.13;;;12.51;74.55
63493;BME280;49638;47.526;10.028;2023-05-19T15:49:54;91752.56;;;12.59;74.66
63493;BME280;49638;47.526;10.028;2023-05-19T15:52:54;91742.72;;;12.54;74.66
63493;BME280;49638;47.526;10.028;2023-05-19T15:55:54;91738.69;;;12.47;74.63
63493;BME280;49638;47.526;10.028;2023-05-19T15:58:56;91750.38;;;12.51;74.90
63493;BME280;49638;47.526;10.028;2023-05-19T16:01:56;91749.81;;;12.44;74.82
63493;BME280;49638;47.526;10.028;2023-05-19T16:04:56;91750.22;;;12.30;74.53
63493;BME280;49638;47.526;10.028;2023-05-19T16:07:57;91743.84;;;12.26;74.40
63493;BME280;49638;47.526;10.028;2023-05-19T16:10:57;91741.09;;;12.16;74.46
63493;BME280;49638;47.526;10.028;2023-05-19T16:13:57;91736.59;;;12.17;74.64
63493;BME280;49638;47.526;10.028;2023-05-19T16:16:57;91752.44;;;12.12;74.55
63493;BME280;49638;47.526;10.028;2023-05-19T16:19:58;91734.59;;;12.02;74.90